Time;durP1;ratioP1;P1;durP2;ratioP2;P2;SDS_P1;SDS_P2;PMS_P1;PMS_P2;Temp;Humidity;BMP_temperature;BMP_pressure;BME280_temperature;BME280_humidity;BME280_pressure;Samples;Min_cycle;Max_cycle;Signal;HPM_P1;HPM_P2
2023/06/21 00:00:30;;;;;;;17.85;6.38;;;26.70;82.40;;;;;;5025944;28;20022;-54
2023/06/21 00:02:58;;;;;;;19.25;6.65;;;26.60;82.40;;;;;;5026014;28;20034;-54
2023/06/21 00:05:24;;;;;;;19.55;6.22;;;26.60;82.50;;;;;;5008563;28;20022;-54
2023/06/21 00:07:52;;;;;;;15.27;6.60;;;26.60;82.60;;;;;;5024461;28;20049;-54
2023/06/21 00:10:20;;;;;;;22.48;6.57;;;26.60;82.60;;;;;;5024501;28;20103;-54
2023/06/21 00:12:46;;;;;;;24.00;6.55;;;26.50;82.60;;;;;;5025761;28;20049;-54
2023/06/21 00:15:11;;;;;;;21.58;5.97;;;26.50;82.50;;;;;;5024358;28;20056;-54
2023/06/21 00:17:37;;;;;;;21.58;6.28;;;26.50;82.60;;;;;;5007837;28;20053;-54
2023/06/21 00:20:03;;;;;;;16.92;5.95;;;26.50;82.60;;;;;;5025739;28;20033;-54
2023/06/21 00:22:29;;;;;;;20.35;6.57;;;26.40;82.50;;;;;;5008029;28;20050;-54
2023/06/21 00:24:57;;;;;;;21.13;5.88;;;26.40;82.50;;;;;;5025645;28;20037;-54
2023/06/21 00:27:22;;;;;;;17.42;6.55;;;26.40;82.60;;;;;;5025665;28;20041;-54
2023/06/21 00:29:48;;;;;;;18.02;6.15;;;26.40;82.60;;;;;;5023560;28;20057;-54
2023/06/21 00:32:13;;;;;;;15.05;5.70;;;26.30;82.60;;;;;;5024045;28;20030;-54
2023/06/21 00:34:39;;;;;;;13.38;6.15;;;26.30;82.50;;;;;;5025267;28;20054;-54
2023/06/21 00:37:05;;;;;;;15.43;5.88;;;26.30;82.60;;;;;;5024121;28;20030;-54
2023/06/21 00:39:30;;;;;;;20.65;5.85;;;26.30;83.10;;;;;;5023933;28;20053;-54
2023/06/21 00:41:56;;;;;;;20.40;6.10;;;26.30;82.60;;;;;;5024052;28;20030;-54
2023/06/21 00:44:22;;;;;;;13.57;5.90;;;26.30;82.60;;;;;;5023785;28;20030;-54
2023/06/21 00:46:49;;;;;;;13.70;5.80;;;26.20;82.70;;;;;;5025155;28;20046;-54
2023/06/21 00:49:14;;;;;;;10.73;5.60;;;26.20;83.00;;;;;;5023814;28;20046;-54
2023/06/21 00:51:40;;;;;;;11.95;5.40;;;26.20;83.10;;;;;;5023711;28;20052;-54
2023/06/21 00:54:06;;;;;;;22.15;6.13;;;26.20;83.30;;;;;;5023884;28;20026;-54
2023/06/21 00:56:33;;;;;;;16.45;6.30;;;26.20;83.20;;;;;;5025103;28;20105;-54
2023/06/21 00:58:59;;;;;;;15.57;5.50;;;26.10;83.20;;;;;;5023653;28;20023;-54
2023/06/21 01:01:26;;;;;;;16.48;6.85;;;26.10;83.20;;;;;;5025043;28;20449;-54
2023/06/21 01:03:53;;;;;;;14.10;5.65;;;26.10;83.40;;;;;;5025139;28;20029;-54
2023/06/21 01:06:26;;;;;;;13.25;5.80;;;26.00;83.30;;;;;;5007184;28;20033;-54
2023/06/21 01:09:00;;;;;;;11.95;6.10;;;26.00;83.30;;;;;;4991667;28;20033;-54
2023/06/21 01:11:30;;;;;;;13.00;5.38;;;26.00;83.50;;;;;;5007211;28;20033;-54
2023/06/21 01:13:59;;;;;;;14.73;5.13;;;26.00;83.60;;;;;;5024748;28;20057;-54
2023/06/21 01:16:29;;;;;;;11.77;5.35;;;26.00;83.60;;;;;;5023617;28;20113;-54
2023/06/21 01:18:54;;;;;;;10.77;5.47;;;26.00;83.60;;;;;;5007500;28;20014;-54
2023/06/21 01:21:22;;;;;;;13.85;6.03;;;26.00;83.60;;;;;;5023433;28;20077;-54
2023/06/21 01:23:51;;;;;;;9.85;5.35;;;25.90;83.50;;;;;;5023531;28;20026;-54
2023/06/21 01:26:22;;;;;;;14.38;5.20;;;25.90;83.50;;;;;;5023497;28;20032;-54
2023/06/21 01:29:17;;;;;;;18.52;5.82;;;25.90;83.70;;;;;;5007000;28;20104;-54
2023/06/21 01:31:43;;;;;;;9.85;4.85;;;25.90;83.60;;;;;;5008544;28;20427;-54
2023/06/21 01:34:09;;;;;;;11.75;5.43;;;25.80;83.60;;;;;;5023238;28;20069;-54
2023/06/21 01:36:36;;;;;;;13.93;5.13;;;25.80;83.70;;;;;;5007128;28;20034;-54
2023/06/21 01:39:04;;;;;;;14.27;5.40;;;25.80;83.80;;;;;;5023265;28;20081;-54
2023/06/21 01:41:29;;;;;;;14.05;5.80;;;25.80;83.90;;;;;;5024371;28;20030;-54
2023/06/21 01:43:55;;;;;;;17.58;5.85;;;25.80;84.00;;;;;;5027358;28;20022;-54
2023/06/21 01:46:22;;;;;;;11.18;5.50;;;25.80;84.10;;;;;;4994420;28;20057;-54
2023/06/21 01:48:48;;;;;;;12.93;6.38;;;25.80;84.10;;;;;;5011226;28;20030;-54
2023/06/21 01:51:14;;;;;;;16.70;7.63;;;25.80;84.60;;;;;;5010766;28;20045;-54
2023/06/21 01:53:39;;;;;;;12.27;6.82;;;25.70;83.90;;;;;;5010565;28;20060;-54
2023/06/21 01:56:08;;;;;;;8.13;6.45;;;25.70;84.10;;;;;;5010666;28;20132;-54
2023/06/21 01:58:34;;;;;;;12.88;6.55;;;25.70;84.20;;;;;;5026831;28;20030;-54
2023/06/21 02:00:59;;;;;;;20.70;6.28;;;25.70;84.30;;;;;;5010565;28;20362;-53
2023/06/21 02:03:25;;;;;;;14.63;6.32;;;25.70;84.50;;;;;;5010686;28;20044;-54
2023/06/21 02:05:51;;;;;;;9.30;5.70;;;25.70;84.50;;;;;;5010447;28;20049;-54
2023/06/21 02:08:16;;;;;;;10.23;5.63;;;25.60;84.40;;;;;;5010418;28;20038;-54
2023/06/21 02:10:44;;;;;;;13.48;6.20;;;25.60;84.30;;;;;;5010354;28;20109;-54
2023/06/21 02:13:10;;;;;;;9.98;5.78;;;25.60;84.40;;;;;;5009967;28;20492;-54
2023/06/21 02:15:37;;;;;;;14.70;5.53;;;25.60;84.50;;;;;;5026614;28;20041;-54
2023/06/21 02:18:03;;;;;;;13.77;6.30;;;25.60;84.50;;;;;;5026420;28;20430;-54
2023/06/21 02:20:29;;;;;;;16.38;6.35;;;25.60;84.40;;;;;;5026481;28;20029;-54
2023/06/21 02:22:54;;;;;;;14.38;6.60;;;25.60;84.50;;;;;;5027863;28;20501;-54
2023/06/21 02:25:21;;;;;;;13.43;6.28;;;25.60;84.60;;;;;;5027768;28;20026;-54
2023/06/21 02:27:47;;;;;;;13.05;6.50;;;25.60;84.70;;;;;;5027827;28;20037;-54
2023/06/21 02:30:13;;;;;;;13.25;6.50;;;25.50;84.70;;;;;;5027888;28;20478;-54
2023/06/21 02:32:38;;;;;;;11.43;6.75;;;25.50;84.80;;;;;;5027401;28;20042;-54
2023/06/21 02:35:05;;;;;;;18.77;6.82;;;25.50;84.80;;;;;;5026289;28;20022;-54
2023/06/21 02:37:30;;;;;;;15.05;6.18;;;25.50;84.80;;;;;;5027583;28;20022;-54
2023/06/21 02:39:56;;;;;;;15.10;6.43;;;25.50;84.90;;;;;;5026239;28;20033;-54
2023/06/21 02:42:22;;;;;;;8.02;5.95;;;25.50;84.90;;;;;;5009787;28;20469;-54
2023/06/21 02:44:48;;;;;;;15.70;6.18;;;25.50;84.90;;;;;;5027488;28;20180;-54
2023/06/21 02:47:13;;;;;;;15.43;5.97;;;25.50;84.90;;;;;;5025970;28;20165;-54
2023/06/21 02:49:39;;;;;;;12.23;6.15;;;25.40;85.00;;;;;;5009591;28;20029;-54
2023/06/21 02:52:04;;;;;;;13.27;6.38;;;25.40;85.00;;;;;;5026554;28;20073;-54
2023/06/21 02:54:30;;;;;;;9.20;5.75;;;25.40;85.00;;;;;;5025889;28;20018;-54
2023/06/21 02:56:56;;;;;;;10.98;5.70;;;25.40;85.00;;;;;;5025875;28;20065;-54
2023/06/21 02:59:21;;;;;;;12.18;5.88;;;25.40;85.00;;;;;;5009436;28;20022;-54
2023/06/21 03:01:47;;;;;;;10.80;6.60;;;25.40;85.10;;;;;;5027129;28;20498;-54
2023/06/21 03:04:16;;;;;;;12.00;5.63;;;25.40;85.10;;;;;;5027177;28;20351;-54
2023/06/21 03:06:41;;;;;;;13.88;5.82;;;25.40;85.00;;;;;;5025804;28;20030;-54
2023/06/21 03:09:07;;;;;;;11.15;5.93;;;25.40;85.00;;;;;;5040477;28;20428;-54
2023/06/21 03:11:33;;;;;;;13.60;5.90;;;25.40;85.00;;;;;;5045891;28;20040;-54
2023/06/21 03:13:58;;;;;;;15.25;7.03;;;25.30;84.90;;;;;;5045739;28;20036;-54
2023/06/21 03:16:24;;;;;;;17.33;6.47;;;25.40;85.10;;;;;;5044765;28;20052;-54
2023/06/21 03:18:50;;;;;;;10.27;6.53;;;25.30;85.10;;;;;;5054171;28;20084;-54
2023/06/21 03:21:16;;;;;;;10.93;6.18;;;25.30;85.00;;;;;;5060438;28;20486;-54
2023/06/21 03:23:41;;;;;;;10.85;6.20;;;25.30;85.00;;;;;;5046480;28;20053;-52
2023/06/21 03:26:07;;;;;;;13.00;6.43;;;25.30;85.00;;;;;;5046213;28;20485;-54
2023/06/21 03:28:32;;;;;;;8.90;5.90;;;25.30;85.30;;;;;;5046000;28;20029;-54
2023/06/21 03:30:58;;;;;;;14.80;5.90;;;25.30;85.40;;;;;;5028402;28;20041;-54
2023/06/21 03:33:24;;;;;;;11.15;6.32;;;25.30;85.30;;;;;;5046722;28;20034;-54
2023/06/21 03:35:49;;;;;;;36.15;7.97;;;25.30;85.30;;;;;;5045283;28;20029;-54
2023/06/21 03:38:15;;;;;;;27.50;8.07;;;25.30;85.40;;;;;;5046875;28;20038;-54
2023/06/21 03:40:41;;;;;;;17.85;7.32;;;25.30;85.50;;;;;;5045495;28;20040;-54
2023/06/21 03:43:06;;;;;;;24.48;8.27;;;25.30;85.60;;;;;;5045475;28;20021;-54
2023/06/21 03:45:32;;;;;;;22.58;7.75;;;25.30;85.60;;;;;;5044744;28;20036;-54
2023/06/21 03:47:59;;;;;;;39.58;8.35;;;25.20;85.50;;;;;;5027933;28;20034;-54
2023/06/21 03:50:25;;;;;;;27.73;7.55;;;25.20;85.70;;;;;;5046004;28;20030;-54
2023/06/21 03:52:50;;;;;;;38.70;8.80;;;25.20;85.80;;;;;;5046136;28;20346;-54
2023/06/21 03:55:16;;;;;;;29.65;8.45;;;25.20;85.90;;;;;;5044723;28;20125;-54
2023/06/21 03:57:41;;;;;;;26.55;8.57;;;25.20;85.90;;;;;;5044668;28;20103;-54
2023/06/21 04:00:09;;;;;;;24.10;7.82;;;25.20;85.90;;;;;;5046026;28;20063;-54
2023/06/21 04:02:35;;;;;;;29.73;8.60;;;25.20;86.00;;;;;;5046500;28;20033;-54
2023/06/21 04:05:00;;;;;;;33.28;8.15;;;25.10;86.00;;;;;;5027087;28;20044;-54
2023/06/21 04:07:26;;;;;;;30.85;8.68;;;25.10;85.90;;;;;;5045710;28;20039;-54
2023/06/21 04:09:51;;;;;;;25.30;8.18;;;25.10;85.80;;;;;;5044330;28;20093;-54
2023/06/21 04:12:17;;;;;;;29.77;8.52;;;25.10;85.70;;;;;;5045547;28;20045;-54
2023/06/21 04:14:42;;;;;;;25.10;8.05;;;25.10;85.60;;;;;;5027553;28;20067;-54
2023/06/21 04:17:08;;;;;;;21.27;8.25;;;25.10;85.60;;;;;;5027492;28;20366;-54
2023/06/21 04:19:34;;;;;;;31.00;7.90;;;25.10;85.50;;;;;;5045339;28;20447;-54
2023/06/21 04:21:59;;;;;;;25.05;8.27;;;25.10;85.60;;;;;;5043933;28;20084;-54
2023/06/21 04:24:25;;;;;;;24.00;7.53;;;25.10;85.60;;;;;;5043995;28;20033;-54
2023/06/21 04:26:50;;;;;;;29.13;8.70;;;25.10;85.70;;;;;;5043928;28;20124;-54
2023/06/21 04:29:19;;;;;;;21.55;7.47;;;25.10;85.80;;;;;;5045136;28;20048;-54
2023/06/21 04:31:45;;;;;;;19.60;8.07;;;25.10;85.80;;;;;;5027400;28;20036;-54
2023/06/21 04:34:10;;;;;;;20.30;7.80;;;25.10;85.90;;;;;;5027193;28;20093;-54
2023/06/21 04:36:37;;;;;;;30.27;8.02;;;25.10;86.00;;;;;;5045195;28;20026;-54
2023/06/21 04:39:03;;;;;;;21.67;7.43;;;25.10;86.20;;;;;;5043800;28;20024;-54
2023/06/21 04:41:28;;;;;;;23.00;8.05;;;25.10;86.20;;;;;;5027430;28;20025;-54
2023/06/21 04:43:54;;;;;;;22.27;7.38;;;25.10;85.80;;;;;;5043719;28;20026;-54
2023/06/21 04:46:21;;;;;;;29.77;7.97;;;25.10;85.60;;;;;;5043699;28;20044;-54
2023/06/21 04:48:47;;;;;;;21.15;7.00;;;25.10;85.60;;;;;;5044913;28;20204;-54
2023/06/21 04:51:15;;;;;;;33.72;8.30;;;25.10;85.60;;;;;;5027168;28;20052;-54
2023/06/21 04:53:42;;;;;;;24.58;8.10;;;25.10;86.00;;;;;;5027166;28;20025;-54
2023/06/21 04:56:07;;;;;;;22.05;7.47;;;25.10;86.00;;;;;;5043445;28;20038;-54
2023/06/21 04:58:37;;;;;;;24.35;7.60;;;25.10;85.80;;;;;;5044804;28;20036;-54
2023/06/21 05:01:03;;;;;;;17.77;7.47;;;25.10;85.80;;;;;;5044987;28;20029;-54
2023/06/21 05:03:28;;;;;;;19.10;7.05;;;25.10;85.50;;;;;;5043465;28;20112;-54
2023/06/21 05:05:54;;;;;;;27.45;7.80;;;25.10;86.10;;;;;;5043157;28;20048;-54
2023/06/21 05:08:20;;;;;;;19.83;7.50;;;25.10;85.60;;;;;;5026682;28;20049;-54
2023/06/21 05:10:45;;;;;;;22.92;7.38;;;25.10;85.40;;;;;;5044545;28;20029;-54
2023/06/21 05:13:11;;;;;;;16.05;7.10;;;25.10;85.40;;;;;;5044151;28;20369;-54
2023/06/21 05:15:36;;;;;;;27.23;7.57;;;25.10;85.30;;;;;;5026597;28;20453;-54
2023/06/21 05:18:03;;;;;;;16.90;7.32;;;25.20;85.40;;;;;;5043313;28;20026;-54
2023/06/21 05:20:29;;;;;;;14.60;6.63;;;25.10;85.30;;;;;;5044319;28;20086;-54
2023/06/21 05:22:54;;;;;;;21.20;6.88;;;25.20;85.40;;;;;;5026767;28;20378;-54
2023/06/21 05:25:20;;;;;;;1862.55;317.63;;;25.20;85.50;;;;;;5043311;28;20464;-54
2023/06/21 05:27:46;;;;;;;1891.07;330.70;;;25.10;85.70;;;;;;5043076;28;20069;-54
2023/06/21 05:30:12;;;;;;;1096.78;181.68;;;25.10;86.00;;;;;;5043031;28;20038;-54
2023/06/21 05:32:37;;;;;;;672.25;95.70;;;25.10;86.60;;;;;;5043140;28;20045;-54
2023/06/21 05:35:03;;;;;;;299.17;43.53;;;25.10;86.70;;;;;;5044492;28;20072;-54
2023/06/21 05:37:28;;;;;;;415.33;53.25;;;25.00;87.40;;;;;;5043215;28;20025;-54
2023/06/21 05:39:54;;;;;;;343.23;45.30;;;25.00;87.20;;;;;;5044434;28;20441;-54
2023/06/21 05:42:20;;;;;;;170.60;25.80;;;24.90;87.60;;;;;;5043113;28;20105;-54
2023/06/21 05:44:45;;;;;;;263.73;31.88;;;24.90;87.80;;;;;;5044335;28;20033;-54
2023/06/21 05:47:11;;;;;;;151.05;24.75;;;24.90;88.00;;;;;;5042983;28;20071;-54
2023/06/21 05:49:36;;;;;;;202.85;26.92;;;24.90;88.40;;;;;;5042982;28;20022;-54
2023/06/21 05:52:02;;;;;;;133.30;21.20;;;24.80;88.50;;;;;;5042667;28;20036;-54
2023/06/21 05:54:27;;;;;;;131.60;20.88;;;24.90;88.50;;;;;;5042860;28;20061;-54
2023/06/21 05:56:55;;;;;;;100.60;17.20;;;24.80;88.50;;;;;;5044748;28;20032;-54
2023/06/21 05:59:20;;;;;;;136.15;19.20;;;24.80;88.60;;;;;;5044410;28;20484;-54
2023/06/21 06:01:46;;;;;;;75.97;14.90;;;24.80;88.70;;;;;;5042212;28;20038;-54
2023/06/21 06:04:11;;;;;;;66.72;13.27;;;24.80;88.60;;;;;;5041553;28;20474;-54
2023/06/21 06:06:38;;;;;;;56.38;12.10;;;24.80;88.50;;;;;;5042722;28;20026;-54
2023/06/21 06:09:05;;;;;;;57.38;11.90;;;24.80;88.70;;;;;;5042783;28;20100;-54
2023/06/21 06:11:30;;;;;;;44.88;10.85;;;24.80;88.60;;;;;;5042569;28;20113;-53
2023/06/21 06:13:56;;;;;;;43.75;10.55;;;24.80;88.50;;;;;;5043759;28;20099;-54
2023/06/21 06:16:21;;;;;;;40.30;9.55;;;24.80;88.20;;;;;;5042623;28;20053;-54
2023/06/21 06:18:47;;;;;;;30.58;8.77;;;24.80;88.20;;;;;;5042543;28;20501;-53
2023/06/21 06:21:12;;;;;;;34.95;9.07;;;24.90;88.30;;;;;;5043302;28;20021;-54
2023/06/21 06:23:38;;;;;;;28.60;7.50;;;24.90;88.40;;;;;;5043902;28;20064;-53
2023/06/21 06:26:03;;;;;;;18.67;7.43;;;24.80;88.70;;;;;;5043712;28;20029;-54
2023/06/21 06:28:29;;;;;;;21.10;7.90;;;24.90;88.70;;;;;;5046383;28;20474;-54
2023/06/21 06:30:55;;;;;;;21.33;7.38;;;24.90;89.20;;;;;;5046173;28;20026;-54
2023/06/21 06:33:20;;;;;;;24.92;7.20;;;24.90;88.90;;;;;;5047687;28;20041;-54
2023/06/21 06:35:46;;;;;;;17.40;7.70;;;24.90;88.70;;;;;;5046015;28;20021;-53
2023/06/21 06:38:11;;;;;;;18.95;7.57;;;24.90;88.90;;;;;;5046110;28;20551;-54
2023/06/21 06:40:37;;;;;;;16.83;6.57;;;24.90;88.70;;;;;;5047718;28;20466;-54
2023/06/21 06:43:04;;;;;;;13.57;5.90;;;24.90;88.80;;;;;;5047662;28;20042;-54
2023/06/21 06:45:30;;;;;;;18.25;6.57;;;24.90;88.70;;;;;;5045933;28;20017;-54
2023/06/21 06:47:55;;;;;;;24.02;7.03;;;24.90;88.80;;;;;;5047003;28;20132;-53
2023/06/21 06:50:21;;;;;;;18.33;6.93;;;25.00;89.00;;;;;;5046987;28;20029;-53
2023/06/21 06:52:48;;;;;;;19.40;7.57;;;24.90;89.10;;;;;;5047014;28;20034;-54
2023/06/21 06:55:13;;;;;;;19.50;7.32;;;25.00;90.00;;;;;;5046931;28;20025;-54
2023/06/21 06:57:39;;;;;;;31.90;7.60;;;24.90;89.40;;;;;;5046960;28;20038;-54
2023/06/21 07:00:11;;;;;;;41.00;11.95;;;24.90;89.40;;;;;;5046935;28;20021;-54
2023/06/21 07:02:36;;;;;;;28.73;8.70;;;25.00;89.60;;;;;;5046946;28;20109;-53
2023/06/21 07:05:02;;;;;;;32.47;8.15;;;25.00;89.70;;;;;;5045581;28;20115;-54
2023/06/21 07:07:27;;;;;;;20.45;7.32;;;24.90;89.30;;;;;;5029061;28;20038;-54
2023/06/21 07:09:53;;;;;;;27.08;6.93;;;25.00;89.30;;;;;;5046919;28;20083;-54
2023/06/21 07:12:18;;;;;;;16.75;7.38;;;25.00;89.00;;;;;;5045361;28;20124;-53
2023/06/21 07:14:44;;;;;;;40.75;9.70;;;25.00;89.30;;;;;;5045180;28;20026;-54
2023/06/21 07:17:09;;;;;;;30.27;7.57;;;25.00;89.40;;;;;;5046575;28;20135;-54
2023/06/21 07:19:35;;;;;;;37.33;7.97;;;25.10;89.30;;;;;;5046632;28;20138;-54
2023/06/21 07:22:00;;;;;;;30.92;8.07;;;25.20;89.40;;;;;;5045085;28;20044;-54
2023/06/21 07:24:26;;;;;;;21.80;7.65;;;25.20;89.30;;;;;;5045391;28;20030;-54
2023/06/21 07:26:51;;;;;;;20.75;7.63;;;25.10;89.20;;;;;;5046566;28;20053;-54
2023/06/21 07:29:17;;;;;;;20.42;8.05;;;25.10;89.00;;;;;;5045127;28;20052;-54
2023/06/21 07:31:42;;;;;;;22.45;7.22;;;25.10;89.00;;;;;;5045124;28;20256;-54
2023/06/21 07:34:08;;;;;;;38.63;8.40;;;25.10;89.20;;;;;;5046325;28;20021;-54
2023/06/21 07:36:34;;;;;;;75.03;9.90;;;25.10;90.00;;;;;;5044927;28;20368;-53
2023/06/21 07:38:59;;;;;;;32.10;8.40;;;25.10;90.30;;;;;;5046064;28;20018;-52
2023/06/21 07:41:25;;;;;;;34.63;8.00;;;25.10;90.60;;;;;;5046148;28;20026;-51
2023/06/21 07:43:50;;;;;;;36.17;7.93;;;25.10;90.60;;;;;;5046031;28;20026;-52
2023/06/21 07:46:16;;;;;;;30.40;7.43;;;25.00;90.70;;;;;;5046101;28;20029;-52
2023/06/21 07:48:42;;;;;;;40.25;7.63;;;25.00;90.60;;;;;;5045960;28;20125;-52
2023/06/21 07:51:08;;;;;;;40.85;7.13;;;25.00;90.60;;;;;;5046131;28;20108;-52
2023/06/21 07:53:33;;;;;;;51.78;7.53;;;25.00;90.60;;;;;;5044586;28;20143;-53
2023/06/21 07:56:01;;;;;;;44.83;7.38;;;24.90;90.60;;;;;;5045902;28;20022;-53
2023/06/21 07:58:28;;;;;;;37.35;7.95;;;24.90;90.80;;;;;;5044430;28;20041;-53
2023/06/21 08:00:53;;;;;;;28.48;7.00;;;24.90;90.50;;;;;;5044291;28;20036;-53
2023/06/21 08:03:19;;;;;;;39.80;7.03;;;24.90;90.50;;;;;;5044014;28;20033;-53
2023/06/21 08:05:44;;;;;;;55.75;8.18;;;24.90;90.40;;;;;;5044313;28;20029;-53
2023/06/21 08:08:10;;;;;;;57.33;9.55;;;24.80;90.40;;;;;;5045278;28;20048;-53
2023/06/21 08:10:35;;;;;;;61.30;9.05;;;24.80;90.40;;;;;;5044629;28;20045;-53
2023/06/21 08:13:01;;;;;;;59.10;8.48;;;24.80;90.50;;;;;;5044272;28;20037;-53
2023/06/21 08:15:27;;;;;;;42.78;8.35;;;24.80;90.60;;;;;;5043049;28;20049;-53
2023/06/21 08:17:52;;;;;;;53.78;7.72;;;24.70;90.40;;;;;;5043010;28;20029;-53
2023/06/21 08:20:18;;;;;;;34.58;7.55;;;24.70;90.30;;;;;;5043182;28;20053;-53
2023/06/21 08:22:44;;;;;;;50.88;8.07;;;24.70;90.20;;;;;;5050390;28;20025;-53
2023/06/21 08:25:10;;;;;;;68.88;9.60;;;24.70;90.10;;;;;;5044400;28;20093;-53
2023/06/21 08:27:35;;;;;;;39.75;8.00;;;24.80;90.50;;;;;;5043635;28;20466;-53
2023/06/21 08:30:01;;;;;;;69.32;8.75;;;24.80;90.70;;;;;;5048205;28;20370;-52
2023/06/21 08:32:26;;;;;;;65.78;10.00;;;24.80;90.80;;;;;;5047319;28;20041;-53
2023/06/21 08:34:54;;;;;;;54.85;8.43;;;24.80;90.80;;;;;;5044690;28;20036;-53
2023/06/21 08:37:25;;;;;;;66.50;8.07;;;24.70;90.80;;;;;;5042608;28;20458;-53
2023/06/21 08:39:52;;;;;;;52.08;7.57;;;24.70;90.60;;;;;;5043114;28;20452;-53
2023/06/21 08:42:19;;;;;;;52.83;8.23;;;24.70;90.60;;;;;;5043107;28;20064;-53
2023/06/21 08:44:45;;;;;;;61.30;8.13;;;24.70;90.70;;;;;;5044329;28;20029;-54
2023/06/21 08:47:10;;;;;;;58.67;8.85;;;24.70;90.80;;;;;;5043006;28;20026;-53
2023/06/21 08:49:40;;;;;;;55.78;7.38;;;24.70;90.80;;;;;;5042735;28;20040;-54
2023/06/21 08:52:07;;;;;;;39.63;7.13;;;24.70;90.80;;;;;;5039313;28;20041;-53
2023/06/21 08:54:33;;;;;;;52.67;7.75;;;24.70;90.90;;;;;;5035681;28;20053;-54
2023/06/21 08:57:06;;;;;;;42.70;7.43;;;24.80;90.70;;;;;;5034024;28;20096;-53
2023/06/21 08:59:36;;;;;;;45.78;7.25;;;24.80;90.90;;;;;;5013293;28;20104;-54
2023/06/21 09:02:31;;;;;;;44.55;6.35;;;24.80;90.50;;;;;;5044378;28;20025;-53
2023/06/21 09:04:58;;;;;;;45.55;7.35;;;24.90;90.40;;;;;;5033750;28;20033;-54
2023/06/21 09:07:23;;;;;;;45.75;6.85;;;24.90;90.40;;;;;;5030463;28;20033;-54
2023/06/21 09:09:50;;;;;;;50.92;7.15;;;24.90;90.30;;;;;;5041621;28;20031;-54
2023/06/21 09:12:16;;;;;;;41.03;7.00;;;25.00;90.40;;;;;;5039261;28;20034;-54
2023/06/21 09:14:42;;;;;;;31.60;5.68;;;25.00;90.30;;;;;;5038431;28;20555;-54
2023/06/21 09:17:07;;;;;;;37.38;5.90;;;25.00;90.30;;;;;;5023838;28;20099;-54
2023/06/21 09:19:35;;;;;;;42.45;6.35;;;25.10;90.10;;;;;;5026513;28;20104;-54
2023/06/21 09:22:00;;;;;;;41.90;6.55;;;25.10;90.10;;;;;;5042320;28;20041;-54
2023/06/21 09:24:26;;;;;;;42.65;5.45;;;25.10;90.00;;;;;;5042786;28;20037;-53
2023/06/21 09:26:52;;;;;;;26.40;5.07;;;25.10;89.30;;;;;;5042906;28;20033;-53
2023/06/21 09:29:17;;;;;;;51.15;6.65;;;25.10;89.20;;;;;;5043067;28;20064;-54
2023/06/21 09:31:43;;;;;;;45.97;5.53;;;25.20;89.30;;;;;;5026747;28;20029;-54
2023/06/21 09:34:08;;;;;;;41.05;5.65;;;25.20;89.30;;;;;;5024390;28;20469;-53
2023/06/21 09:36:34;;;;;;;52.50;6.57;;;25.20;89.00;;;;;;5042923;28;20450;-54
2023/06/21 09:39:10;;;;;;;43.83;7.20;;;25.20;88.60;;;;;;5043251;28;20064;-53
2023/06/21 09:41:35;;;;;;;45.05;6.28;;;25.30;88.40;;;;;;5044470;28;20045;-54
2023/06/21 09:44:01;;;;;;;41.20;6.15;;;25.30;88.00;;;;;;5036708;28;20025;-54
2023/06/21 09:46:27;;;;;;;54.72;7.00;;;25.40;87.60;;;;;;5039243;28;20263;-53
2023/06/21 09:48:52;;;;;;;58.95;6.97;;;25.40;86.90;;;;;;5026134;28;20025;-53
2023/06/21 09:51:22;;;;;;;56.33;7.38;;;25.40;86.40;;;;;;5053081;28;20032;-53
2023/06/21 09:53:47;;;;;;;43.70;5.95;;;25.50;86.00;;;;;;5040949;28;20037;-54
2023/06/21 09:56:19;;;;;;;42.70;5.93;;;25.50;85.40;;;;;;5044521;28;20044;-54
2023/06/21 09:58:47;;;;;;;42.10;6.25;;;25.60;84.50;;;;;;5044068;28;20036;-54
2023/06/21 10:01:16;;;;;;;38.28;6.28;;;25.60;83.70;;;;;;5041945;28;20028;-54
2023/06/21 10:03:49;;;;;;;51.45;5.85;;;25.60;83.10;;;;;;5044956;28;20033;-54
2023/06/21 10:06:16;;;;;;;39.58;6.05;;;25.60;82.90;;;;;;5045750;28;20027;-54
2023/06/21 10:08:42;;;;;;;52.53;7.45;;;25.60;82.70;;;;;;5025880;28;20034;-54
2023/06/21 10:11:08;;;;;;;50.97;5.93;;;25.60;83.10;;;;;;5044873;28;20174;-54
2023/06/21 10:13:33;;;;;;;57.58;7.00;;;25.60;83.40;;;;;;5044374;28;20041;-54
2023/06/21 10:16:00;;;;;;;54.15;6.63;;;25.60;83.70;;;;;;5046453;28;20442;-55
2023/06/21 10:18:26;;;;;;;62.72;7.75;;;25.60;83.60;;;;;;5047211;28;20490;-54
2023/06/21 10:20:54;;;;;;;82.32;8.13;;;25.70;83.60;;;;;;5046051;28;20037;-54
2023/06/21 10:23:19;;;;;;;60.78;8.43;;;25.70;83.60;;;;;;5044013;28;20045;-54
2023/06/21 10:25:45;;;;;;;72.70;9.80;;;25.70;83.70;;;;;;5031388;28;20101;-54
2023/06/21 10:28:12;;;;;;;76.20;11.10;;;25.70;83.80;;;;;;5026639;28;20030;-54
2023/06/21 10:30:38;;;;;;;74.90;9.77;;;25.80;83.80;;;;;;5045874;28;20048;-54
2023/06/21 10:33:03;;;;;;;79.40;10.35;;;25.80;83.80;;;;;;5029578;28;20022;-54
2023/06/21 10:35:33;;;;;;;93.70;9.45;;;25.80;83.80;;;;;;5045993;28;20093;-54
2023/06/21 10:38:14;;;;;;;59.28;8.25;;;25.80;83.70;;;;;;5029956;28;20037;-54
2023/06/21 10:40:40;;;;;;;55.65;9.00;;;25.90;83.70;;;;;;5029189;28;20039;-54
2023/06/21 10:43:05;;;;;;;69.45;8.07;;;25.90;83.70;;;;;;5029135;28;20034;-54
2023/06/21 10:45:31;;;;;;;62.70;8.10;;;25.90;83.60;;;;;;5029098;28;20105;-54
2023/06/21 10:47:57;;;;;;;58.30;6.95;;;26.00;83.70;;;;;;5029052;28;20036;-54
2023/06/21 10:50:23;;;;;;;76.53;8.48;;;26.00;84.00;;;;;;5045467;28;20103;-55
2023/06/21 10:52:53;;;;;;;57.72;7.30;;;26.00;83.90;;;;;;5046821;28;20033;-55
2023/06/21 10:55:20;;;;;;;46.55;7.07;;;26.00;83.60;;;;;;5045167;28;20202;-52
2023/06/21 10:57:45;;;;;;;96.13;10.90;;;26.10;83.90;;;;;;5028999;28;20041;-55
2023/06/21 11:00:11;;;;;;;69.47;8.30;;;26.10;83.80;;;;;;5043250;28;20234;-54
2023/06/21 11:02:37;;;;;;;67.93;9.27;;;26.20;83.60;;;;;;5026782;28;20120;-54
2023/06/21 11:05:18;;;;;;;71.50;9.15;;;26.30;83.30;;;;;;5044394;28;20041;-54
2023/06/21 11:08:00;;;;;;;72.25;9.05;;;26.30;82.90;;;;;;5043335;28;20033;-54
2023/06/21 11:10:30;;;;;;;48.97;7.35;;;26.40;82.40;;;;;;5044342;28;20045;-54
2023/06/21 11:12:56;;;;;;;79.72;9.30;;;26.40;81.80;;;;;;5042863;28;20021;-54
2023/06/21 11:15:22;;;;;;;81.78;9.57;;;26.50;81.50;;;;;;5045448;28;20135;-54
2023/06/21 11:18:01;;;;;;;75.13;9.02;;;26.50;81.60;;;;;;5028956;28;20048;-54
2023/06/21 11:20:27;;;;;;;57.00;8.18;;;26.50;80.90;;;;;;5012083;28;20106;-55
2023/06/21 11:23:00;;;;;;;65.35;10.80;;;26.60;80.60;;;;;;5018339;28;20033;-55
2023/06/21 11:25:26;;;;;;;57.60;8.52;;;26.70;80.00;;;;;;5043202;28;20137;-55
2023/06/21 11:28:19;;;;;;;65.63;8.63;;;26.80;79.70;;;;;;5025123;28;20167;-54
2023/06/21 11:31:00;;;;;;;59.92;7.85;;;26.90;79.30;;;;;;5044866;28;20033;-54
2023/06/21 11:33:29;;;;;;;46.00;6.80;;;27.00;78.20;;;;;;5045935;28;20037;-54
2023/06/21 11:36:05;;;;;;;51.70;7.90;;;27.10;77.60;;;;;;5027605;28;20025;-54
2023/06/21 11:38:31;;;;;;;61.78;8.27;;;27.20;77.20;;;;;;5041696;28;20165;-54
2023/06/21 11:40:57;;;;;;;63.38;8.52;;;27.30;76.80;;;;;;5043475;28;20069;-54
2023/06/21 11:43:23;;;;;;;64.95;8.80;;;27.40;75.40;;;;;;5016134;28;20093;-54
2023/06/21 11:46:00;;;;;;;58.53;8.85;;;27.50;74.80;;;;;;5029750;28;20029;-53
2023/06/21 11:48:28;;;;;;;66.40;9.18;;;27.50;73.40;;;;;;5018684;28;20045;-54
2023/06/21 11:50:56;;;;;;;39.10;8.18;;;27.60;73.50;;;;;;5026841;28;20029;-54
2023/06/21 11:53:30;;;;;;;58.88;7.95;;;27.70;73.80;;;;;;5024367;28;20033;-54
2023/06/21 11:55:57;;;;;;;65.13;8.30;;;27.80;73.50;;;;;;5023445;28;20026;-54
2023/06/21 11:58:23;;;;;;;64.85;10.68;;;27.90;73.20;;;;;;5043521;28;20030;-54
2023/06/21 12:00:48;;;;;;;70.35;9.40;;;28.00;73.10;;;;;;5023827;28;20048;-54
2023/06/21 12:03:14;;;;;;;45.42;8.73;;;28.00;72.90;;;;;;5040648;28;20136;-54
2023/06/21 12:05:57;;;;;;;70.80;9.68;;;28.00;72.80;;;;;;5042437;28;20037;-54
2023/06/21 12:08:27;;;;;;;74.47;10.88;;;28.10;73.00;;;;;;5035546;28;20029;-54
2023/06/21 12:10:53;;;;;;;68.13;9.70;;;28.20;72.90;;;;;;5051524;28;20093;-54
2023/06/21 12:13:20;;;;;;;77.90;10.23;;;28.30;73.00;;;;;;5034381;28;20110;-54
2023/06/21 12:15:56;;;;;;;80.97;10.23;;;28.30;72.90;;;;;;5040950;28;20040;-55
2023/06/21 12:18:22;;;;;;;93.35;11.95;;;28.40;73.00;;;;;;5030552;28;20032;-54
2023/06/21 12:20:53;;;;;;;74.95;11.85;;;28.50;72.90;;;;;;5048063;28;20033;-55
2023/06/21 12:23:18;;;;;;;93.82;11.93;;;28.60;72.90;;;;;;5031771;28;20053;-55
2023/06/21 12:25:51;;;;;;;79.18;11.02;;;28.70;72.90;;;;;;5035010;28;20033;-54
2023/06/21 12:28:17;;;;;;;101.05;13.02;;;28.80;72.60;;;;;;5037014;28;20029;-54
2023/06/21 12:31:03;;;;;;;101.70;11.38;;;28.90;72.50;;;;;;5036398;28;20056;-54
2023/06/21 12:33:36;;;;;;;97.55;13.10;;;28.90;72.30;;;;;;5035325;28;20064;-54